Abbadia Cerreto, Italy

8:35 AM CET on November 22, 2017 (GMT +0100)
Lodi (San Bernardo) | | Change Station

Elev 256 ft 45.30 °N, 9.52 °E | Updated 46 seconds ago

Mostly Cloudy
Mostly Cloudy
43.9 °F
Feels Like 42 °F
N
3.5
Wind Variable Wind from ESE
Gusts 3.5 mph

Today
High -- | Low -- °F
--% Chance of Precip.
Yesterday
High -- | Low -- °F
Precip. -- in
Pressure 30.12 in
Visibility 3.1 miles
Clouds Mostly Cloudy 5000 ft
Windchill 42 °F
Dew Point 41 °F
Humidity 88%
Rainfall 0.00 in
Snow Depth Not available.
7:29 AM 4:45 PM
Waxing Crescent, 13% visible
METAR LIML 220720Z VRB01KT 5000 BR BKN050 07/05 Q1020 NOSIG
Pressure 30.12 in
Visibility 3.1 miles
Clouds Mostly Cloudy 5000 ft
Windchill 42 °F
Dew Point 41 °F
Humidity 88%
Rainfall 0.00 in
Snow Depth Not available.
7:29 AM 4:45 PM
Waxing Crescent, 13% visible
METAR LIML 220720Z VRB01KT 5000 BR BKN050 07/05 Q1020 NOSIG

Get Severe Weather Alerts

Thanks for signing up!

Be on the lookout for a verification email in your inbox.

You'll start receiving the daily forecast at 6 AM.

×

10-Day Weather Forecast

×

Almanac

Astronomy

Nov. 22, 2017 Rise Set
Actual Time
Civil Twilight
Nautical Twilight
Astronomical Twilight
Moon
Length of Visible Light
Length of Day
Tomorrow will be .
, % of the Moon is Illuminated

Today's Extremes

Country Highs Country Lows

Community

WunderPhotos

Category 6

Welcome to Category 6. This is the collective home for Weather Underground's featured writeups by Dr. Jeff Masters (right), Bob Henson (left), Chris Burt, and other regular contributors.

Nearby

Air Quality

  Air Quality AQ Index Pollutant
Not available.

Snow Depth

Station Depth Elevation

Earthquake Activity

City Distance Mag. Time & Date
Minimum magnitude displayed is 2.5.

Coastal Water Temperatures

Place Temperature

Stations

Nearby Weather Stations

Station Location Temp. Windchill Dew Point Humidity Wind Precip. Elev Updated Type